Time;durP1;ratioP1;P1;durP2;ratioP2;P2;SDS_P1;SDS_P2;PMS_P1;PMS_P2;Temp;Humidity;BMP_temperature;BMP_pressure;BME280_temperature;BME280_humidity;BME280_pressure;Samples;Min_cycle;Max_cycle;Signal;HPM_P1;HPM_P2
2022/10/03 00:00:57;;;;;;;;;;;;;;;19.83;62.83;101085.80;2275357;76;50846;-76
2022/10/03 00:04:09;;;;;;;;;;;;;;;19.82;62.81;101084.14;2229550;79;52062;-77
2022/10/03 00:07:15;;;;;;;;;;;;;;;19.80;62.94;101081.63;2251441;79;51687;-76
2022/10/03 00:10:21;;;;;;;;;;;;;;;19.78;63.00;101083.17;2250898;79;51611;-76
2022/10/03 00:13:27;;;;;;;;;;;;;;;19.79;63.01;101089.37;2251001;78;51615;-76
2022/10/03 00:16:36;;;;;;;;;;;;;;;19.80;62.93;101089.69;2230598;79;52853;-75
2022/10/03 00:19:40;;;;;;;;;;;;;;;19.80;62.95;101095.05;2251201;78;50460;-75
2022/10/03 00:22:49;;;;;;;;;;;;;;;19.79;62.94;101098.25;2199071;77;50821;-75
2022/10/03 00:25:54;;;;;;;;;;;;;;;19.79;62.93;101100.94;2148149;82;50510;-76
2022/10/03 00:29:14;;;;;;;;;;;;;;;19.80;62.94;101110.66;2105250;83;51024;-74
2022/10/03 00:32:17;;;;;;;;;;;;;;;19.81;62.87;101107.48;2113960;83;51525;-75
2022/10/03 00:35:20;;;;;;;;;;;;;;;19.76;63.06;101114.73;2117041;82;51654;-76
2022/10/03 00:38:24;;;;;;;;;;;;;;;19.75;63.01;101115.73;2107300;84;52366;-76
2022/10/03 00:41:39;;;;;;;;;;;;;;;19.76;63.08;101120.10;2083375;84;51902;-77
2022/10/03 00:44:45;;;;;;;;;;;;;;;19.76;62.95;101123.30;2104797;83;50647;-76
2022/10/03 00:47:57;;;;;;;;;;;;;;;19.76;62.94;101128.16;2105327;83;51537;-76
2022/10/03 00:51:00;;;;;;;;;;;;;;;19.76;62.88;101125.47;2105574;82;52105;-76
2022/10/03 00:54:09;;;;;;;;;;;;;;;19.75;62.92;101127.81;2104886;84;50131;-76
2022/10/03 00:57:13;;;;;;;;;;;;;;;19.75;62.95;101125.13;2121137;81;51549;-76
2022/10/03 01:00:18;;;;;;;;;;;;;;;19.75;62.89;101133.18;2151115;81;51439;-76
2022/10/03 01:03:40;;;;;;;;;;;;;;;19.74;62.81;101120.78;2116785;81;51016;-75
2022/10/03 01:06:43;;;;;;;;;;;;;;;19.74;62.84;101124.80;2208129;79;52907;-75
2022/10/03 01:09:46;;;;;;;;;;;;;;;19.74;62.81;101127.49;2211423;79;50496;-76
2022/10/03 01:12:49;;;;;;;;;;;;;;;19.74;62.88;101127.49;2232586;78;50526;-75
2022/10/03 01:15:55;;;;;;;;;;;;;;;19.73;62.82;101127.17;2216802;79;50369;-76
2022/10/03 01:19:00;;;;;;;;;;;;;;;19.74;62.76;101130.69;2216953;79;50552;-76
2022/10/03 01:22:06;;;;;;;;;;;;;;;19.72;62.82;101132.20;2213202;79;51598;-75
2022/10/03 01:25:18;;;;;;;;;;;;;;;19.72;62.84;101144.28;2216741;79;50560;-75
2022/10/03 01:32:02;;;;;;;;;;;;;;;19.73;62.82;101145.97;2177521;80;24694;-75
2022/10/03 01:35:24;;;;;;;;;;;;;;;19.72;62.75;101134.88;2209808;80;51640;-76
2022/10/03 01:38:45;;;;;;;;;;;;;;;19.74;62.67;101142.26;2209816;80;51026;-76
2022/10/03 01:42:01;;;;;;;;;;;;;;;19.70;62.82;101144.12;2226888;79;53112;-76
2022/10/03 01:45:13;;;;;;;;;;;;;;;19.69;62.77;101150.02;2214007;79;49687;-76
2022/10/03 01:48:23;;;;;;;;;;;;;;;19.70;62.83;101151.67;2239679;78;51651;-76
2022/10/03 01:51:43;;;;;;;;;;;;;;;19.69;62.81;101158.07;2239597;79;50823;-76
2022/10/03 01:55:04;;;;;;;;;;;;;;;19.68;62.80;101155.06;2239413;79;50804;-76
2022/10/03 01:58:10;;;;;;;;;;;;;;;19.67;62.75;101145.32;2219085;79;52289;-76
2022/10/03 02:01:14;;;;;;;;;;;;;;;19.68;62.75;101151.52;2255722;79;50699;-76
2022/10/03 02:04:17;;;;;;;;;;;;;;;19.68;62.73;101152.86;2245182;78;50831;-76
2022/10/03 02:07:23;;;;;;;;;;;;;;;19.70;62.65;101156.21;2225014;79;51874;-76
2022/10/03 02:10:30;;;;;;;;;;;;;;;19.70;62.65;101162.92;2227702;79;51164;-76
2022/10/03 02:13:45;;;;;;;;;;;;;;;19.70;62.56;101166.44;2241779;78;50819;-76
2022/10/03 02:16:51;;;;;;;;;;;;;;;19.70;62.57;101167.78;2227234;78;50434;-76
2022/10/03 02:19:58;;;;;;;;;;;;;;;19.70;62.52;101169.64;2232610;79;51574;-76
2022/10/03 02:22:59;;;;;;;;;;;;;;;19.69;62.49;101175.52;2207071;79;52584;-76
2022/10/03 02:26:14;;;;;;;;;;;;;;;19.68;62.50;101165.80;2234011;79;51561;-76
2022/10/03 02:29:18;;;;;;;;;;;;;;;19.69;62.51;101163.44;2232608;79;51373;-75
2022/10/03 02:32:21;;;;;;;;;;;;;;;19.70;62.50;101173.66;2233816;78;51558;-76
2022/10/03 02:35:40;;;;;;;;;;;;;;;19.67;62.56;101166.80;2209069;79;52526;-76
2022/10/03 02:39:00;;;;;;;;;;;;;;;19.69;62.47;101168.80;2234362;78;50827;-76
2022/10/03 02:42:03;;;;;;;;;;;;;;;19.69;62.48;101170.66;2248153;79;51661;-75
2022/10/03 02:45:18;;;;;;;;;;;;;;;19.68;62.46;101177.89;2251679;79;51606;-75
2022/10/03 02:48:36;;;;;;;;;;;;;;;19.68;62.47;101165.80;2222648;79;49629;-76
2022/10/03 02:51:40;;;;;;;;;;;;;;;19.68;62.44;101170.31;2252676;79;50836;-75
2022/10/03 02:54:52;;;;;;;;;;;;;;;19.67;62.46;101176.20;2254379;79;50836;-75
2022/10/03 02:58:01;;;;;;;;;;;;;;;19.64;62.67;101181.89;2254150;79;50899;-76
2022/10/03 03:01:21;;;;;;;;;;;;;;;19.62;62.67;101176.37;2223233;79;51067;-75
2022/10/03 03:04:41;;;;;;;;;;;;;;;19.63;62.46;101179.41;2252018;79;50248;-75
2022/10/03 03:07:57;;;;;;;;;;;;;;;19.64;62.54;101193.97;2253647;79;50494;-75
2022/10/03 03:11:13;;;;;;;;;;;;;;;19.62;62.64;101192.48;2252364;79;51714;-76
2022/10/03 03:14:19;;;;;;;;;;;;;;;19.64;62.54;101200.69;2241966;79;50485;-75
2022/10/03 03:17:25;;;;;;;;;;;;;;;19.64;62.52;101194.48;2251242;79;51732;-76
2022/10/03 03:20:32;;;;;;;;;;;;;;;19.64;62.47;101204.72;2251747;79;51708;-76
2022/10/03 03:23:50;;;;;;;;;;;;;;;19.64;62.42;101201.20;2251735;79;50323;-76
2022/10/03 03:26:57;;;;;;;;;;;;;;;19.64;62.36;101198.00;2222095;79;52025;-76
2022/10/03 03:30:15;;;;;;;;;;;;;;;19.63;62.37;101192.83;2229517;79;50463;-76
2022/10/03 03:33:33;;;;;;;;;;;;;;;19.62;62.38;101201.36;2214810;80;51524;-77
2022/10/03 03:36:43;;;;;;;;;;;;;;;19.63;62.35;101203.56;2215076;79;50691;-78
2022/10/03 03:39:46;;;;;;;;;;;;;;;19.64;62.37;101206.57;2205328;79;50543;-76
2022/10/03 03:42:49;;;;;;;;;;;;;;;19.64;62.33;101202.55;2245666;79;50820;-76
2022/10/03 03:45:55;;;;;;;;;;;;;;;19.63;62.34;101209.77;2251228;77;50786;-76
2022/10/03 03:49:07;;;;;;;;;;;;;;;19.63;62.31;101212.45;2251724;79;51761;-76
2022/10/03 03:52:15;;;;;;;;;;;;;;;19.63;62.27;101211.11;2221858;79;49727;-77
2022/10/03 03:55:33;;;;;;;;;;;;;;;19.63;62.30;101215.14;2250391;77;51010;-76
2022/10/03 03:58:45;;;;;;;;;;;;;;;19.64;62.38;101217.31;2251769;79;50889;-76
2022/10/03 04:01:52;;;;;;;;;;;;;;;19.61;62.23;101213.13;2251348;79;50154;-76
2022/10/03 04:05:11;;;;;;;;;;;;;;;19.61;62.15;101227.89;2222138;79;52800;-77
2022/10/03 04:08:24;;;;;;;;;;;;;;;19.68;61.66;101230.24;2251724;79;50756;-76
2022/10/03 04:11:30;;;;;;;;;;;;;;;19.70;62.16;101227.36;2248637;79;51568;-75
2022/10/03 04:14:45;;;;;;;;;;;;;;;19.76;62.02;101231.53;2249225;79;51631;-76
2022/10/03 04:21:16;;;;;;;;;;;;;;;19.93;61.68;101234.11;2252194;79;22338;-76
2022/10/03 04:24:19;;;;;;;;;;;;;;;20.03;61.39;101244.63;2251445;78;51499;-75
2022/10/03 04:27:25;;;;;;;;;;;;;;;20.08;61.18;101237.70;2251820;79;50761;-76
2022/10/03 04:30:41;;;;;;;;;;;;;;;20.13;61.00;101242.03;2235025;79;52691;-75
2022/10/03 04:33:52;;;;;;;;;;;;;;;20.15;60.92;101248.07;2251534;78;51578;-74
2022/10/03 04:37:10;;;;;;;;;;;;;;;20.14;60.93;101235.66;2251976;78;22463;-76
2022/10/03 04:40:22;;;;;;;;;;;;;;;20.15;60.92;101240.52;2251352;78;50453;-76
2022/10/03 04:43:25;;;;;;;;;;;;;;;20.12;60.95;101241.72;2228474;79;50093;-76
2022/10/03 04:46:35;;;;;;;;;;;;;;;20.10;61.00;101241.05;2251446;78;50471;-76
2022/10/03 04:49:43;;;;;;;;;;;;;;;20.08;61.03;101243.08;2251745;78;50875;-77
2022/10/03 04:52:49;;;;;;;;;;;;;;;20.07;61.08;101247.30;2251746;79;50794;-75
2022/10/03 04:55:55;;;;;;;;;;;;;;;20.05;61.16;101246.64;2235155;79;49441;-77
2022/10/03 04:59:14;;;;;;;;;;;;;;;20.01;61.34;101243.45;2243409;79;50453;-78
2022/10/03 05:02:35;;;;;;;;;;;;;;;19.99;61.51;101246.84;2230384;79;51588;-77
2022/10/03 05:05:55;;;;;;;;;;;;;;;20.01;61.49;101247.48;2247345;78;50483;-77
2022/10/03 05:09:14;;;;;;;;;;;;;;;20.07;61.38;101248.13;2239828;79;50825;-76
2022/10/03 05:12:36;;;;;;;;;;;;;;;20.11;61.16;101252.62;2235418;79;50488;-77
2022/10/03 05:15:51;;;;;;;;;;;;;;;20.13;61.17;101258.16;2105142;83;50435;-78
2022/10/03 05:19:06;;;;;;;;;;;;;;;20.11;61.15;101257.48;2117761;83;51586;-76
2022/10/03 05:22:11;;;;;;;;;;;;;;;20.11;61.12;101262.03;2138392;81;51560;-75
2022/10/03 05:25:24;;;;;;;;;;;;;;;20.09;61.15;101256.86;2115099;83;49594;-74
2022/10/03 05:28:27;;;;;;;;;;;;;;;20.08;61.15;101268.59;2138038;82;51690;-75
2022/10/03 05:31:36;;;;;;;;;;;;;;;20.07;61.24;101263.42;2137463;83;51669;-76
2022/10/03 05:34:49;;;;;;;;;;;;;;;20.05;61.31;101272.98;2137330;83;50936;-75
2022/10/03 05:38:08;;;;;;;;;;;;;;;20.03;61.33;101272.33;2115123;83;50227;-76
2022/10/03 05:41:12;;;;;;;;;;;;;;;20.00;61.52;101278.05;2137459;83;51583;-78
2022/10/03 05:44:17;;;;;;;;;;;;;;;20.02;61.65;101277.37;2137348;83;51531;-76
2022/10/03 05:47:45;;;;;;;;;;;;;;;20.05;61.54;101277.53;2222150;77;51634;-77
2022/10/03 05:50:54;;;;;;;;;;;;;;;20.08;61.47;101282.03;2231563;79;51868;-76
2022/10/03 05:54:04;;;;;;;;;;;;;;;20.12;61.42;101284.70;2249406;78;22280;-75
2022/10/03 05:57:10;;;;;;;;;;;;;;;20.12;61.40;101287.39;2251925;78;50385;-76
2022/10/03 06:00:17;;;;;;;;;;;;;;;20.11;61.42;101284.35;2236985;78;50525;-75
2022/10/03 06:03:21;;;;;;;;;;;;;;;20.10;61.39;101288.06;2188209;80;52724;-75
2022/10/03 06:06:42;;;;;;;;;;;;;;;20.10;61.37;101292.61;2216881;80;50281;-75
2022/10/03 06:10:03;;;;;;;;;;;;;;;20.09;61.34;101297.64;2216697;80;50479;-77
2022/10/03 06:13:06;;;;;;;;;;;;;;;20.08;61.35;101301.34;2216773;80;50291;-76
2022/10/03 06:16:21;;;;;;;;;;;;;;;20.06;61.38;101298.83;2188309;80;51419;-76
2022/10/03 06:19:38;;;;;;;;;;;;;;;20.06;61.44;101297.48;2216901;80;22422;-75
2022/10/03 06:22:51;;;;;;;;;;;;;;;20.01;61.54;101306.09;2216491;80;50514;-76
2022/10/03 06:26:10;;;;;;;;;;;;;;;19.99;61.66;101307.28;2216570;80;51553;-75
2022/10/03 06:29:19;;;;;;;;;;;;;;;20.00;61.58;101323.72;2198322;79;50168;-78
2022/10/03 06:32:39;;;;;;;;;;;;;;;20.06;61.44;101323.00;2216603;80;50693;-74
2022/10/03 06:35:49;;;;;;;;;;;;;;;20.11;61.32;101323.31;2222441;77;51620;-74
2022/10/03 06:39:09;;;;;;;;;;;;;;;20.12;61.31;101337.61;2247304;79;50500;-76
2022/10/03 06:42:12;;;;;;;;;;;;;;;20.12;61.38;101334.92;2254746;78;51644;-74
2022/10/03 06:45:15;;;;;;;;;;;;;;;20.11;61.38;101344.80;2250904;78;50865;-74
2022/10/03 06:48:35;;;;;;;;;;;;;;;20.10;61.41;101337.77;2251824;78;50706;-75
2022/10/03 06:51:38;;;;;;;;;;;;;;;20.10;61.43;101349.86;2252137;79;50857;-74
2022/10/03 06:54:47;;;;;;;;;;;;;;;20.08;61.42;101343.82;2234308;79;53087;-75
2022/10/03 06:58:07;;;;;;;;;;;;;;;20.08;61.42;101353.22;2251891;77;50520;-75
2022/10/03 07:01:13;;;;;;;;;;;;;;;20.07;61.45;101351.56;2238964;79;50369;-75
2022/10/03 07:04:32;;;;;;;;;;;;;;;20.04;61.56;101350.58;2232895;79;51518;-75
2022/10/03 07:07:35;;;;;;;;;;;;;;;20.04;61.57;101348.37;2231107;79;51382;-76
2022/10/03 07:10:47;;;;;;;;;;;;;;;20.05;61.64;101347.38;2251660;78;50462;-76
2022/10/03 07:13:50;;;;;;;;;;;;;;;20.11;61.60;101350.18;2251729;79;50376;-76
2022/10/03 07:16:54;;;;;;;;;;;;;;;20.18;61.23;101348.47;2251762;78;50359;-76
2022/10/03 07:20:01;;;;;;;;;;;;;;;20.20;61.16;101363.91;2235260;79;51686;-76
2022/10/03 07:23:05;;;;;;;;;;;;;;;20.18;60.97;101371.82;2251849;79;51640;-76
2022/10/03 07:26:20;;;;;;;;;;;;;;;20.16;60.92;101365.78;2251586;77;50308;-78
2022/10/03 07:29:29;;;;;;;;;;;;;;;20.16;60.86;101376.52;2226397;79;51611;-78
2022/10/03 07:32:42;;;;;;;;;;;;;;;20.14;60.82;101377.20;2234756;79;52680;-78
2022/10/03 07:39:12;;;;;;;;;;;;;;;20.09;60.84;101375.06;2251970;79;23241;-78
2022/10/03 07:42:16;;;;;;;;;;;;;;;20.08;60.91;101385.47;2242603;78;51518;-76
2022/10/03 07:45:33;;;;;;;;;;;;;;;20.09;61.06;101384.95;2205279;79;50309;-76
2022/10/03 07:48:52;;;;;;;;;;;;;;;20.14;61.21;101384.78;2234137;79;22908;-76
2022/10/03 07:51:59;;;;;;;;;;;;;;;20.19;61.56;101393.16;2252059;79;50381;-76
2022/10/03 07:55:19;;;;;;;;;;;;;;;20.36;61.62;101395.74;2251490;78;50548;-75
2022/10/03 07:58:41;;;;;;;;;;;;;;;20.43;61.59;101399.41;2206699;79;51001;-75
2022/10/03 08:01:49;;;;;;;;;;;;;;;20.48;61.47;101406.95;2250761;79;21992;-76
2022/10/03 08:05:05;;;;;;;;;;;;;;;20.40;62.14;101397.91;2251648;79;50486;-75
2022/10/03 08:08:11;;;;;;;;;;;;;;;20.41;62.55;101410.84;2180741;79;50746;-75
2022/10/03 08:11:14;;;;;;;;;;;;;;;20.47;62.57;101416.84;2222178;79;51200;-76
2022/10/03 08:14:23;;;;;;;;;;;;;;;20.55;62.65;101413.30;2251256;78;51652;-75
2022/10/03 08:17:38;;;;;;;;;;;;;;;20.52;62.54;101423.86;2244851;78;22364;-75
2022/10/03 08:20:48;;;;;;;;;;;;;;;20.53;62.50;101436.31;2260136;78;51598;-75
2022/10/03 08:23:57;;;;;;;;;;;;;;;20.49;62.73;101432.29;2241529;78;51947;-78
2022/10/03 08:27:01;;;;;;;;;;;;;;;20.42;62.79;101435.34;2249417;77;51408;-80
2022/10/03 08:30:04;;;;;;;;;;;;;;;20.39;62.77;101435.70;2240106;78;50814;-76
2022/10/03 08:33:07;;;;;;;;;;;;;;;20.31;63.19;101439.27;2224357;78;52343;-77
2022/10/03 08:36:10;;;;;;;;;;;;;;;20.31;62.81;101443.81;2228076;78;51617;-76
2022/10/03 08:39:13;;;;;;;;;;;;;;;20.30;62.61;101456.42;2233580;78;51483;-77
2022/10/03 08:42:23;;;;;;;;;;;;;;;20.29;62.61;101447.17;2225323;78;51652;-77
2022/10/03 08:45:35;;;;;;;;;;;;;;;20.26;62.50;101443.50;2224008;78;50812;-77
2022/10/03 08:48:47;;;;;;;;;;;;;;;20.24;62.27;101453.06;2225653;80;50562;-78
2022/10/03 08:51:51;;;;;;;;;;;;;;;20.21;62.22;101450.22;2224276;80;50900;-78
2022/10/03 08:55:12;;;;;;;;;;;;;;;20.19;62.23;101450.92;2223361;78;50850;-78
2022/10/03 08:58:31;;;;;;;;;;;;;;;20.16;62.19;101451.25;2230077;78;50517;-77
2022/10/03 09:01:34;;;;;;;;;;;;;;;20.12;62.21;101459.86;2216815;79;51846;-78
2022/10/03 09:04:54;;;;;;;;;;;;;;;20.07;61.94;101469.77;2216414;78;51823;-78
2022/10/03 09:08:13;;;;;;;;;;;;;;;20.13;61.83;101458.32;2224357;80;50467;-78
2022/10/03 09:11:32;;;;;;;;;;;;;;;20.24;61.48;101458.44;2224664;80;51809;-77
2022/10/03 09:14:35;;;;;;;;;;;;;;;20.33;61.06;101453.38;2232955;78;51051;-77
2022/10/03 09:17:44;;;;;;;;;;;;;;;20.34;60.94;101452.86;2261532;77;50850;-78
2022/10/03 09:20:50;;;;;;;;;;;;;;;20.30;60.96;101459.62;2260744;77;51684;-77
2022/10/03 09:24:05;;;;;;;;;;;;;;;20.29;60.91;101446.66;2259894;78;50840;-77
2022/10/03 09:27:17;;;;;;;;;;;;;;;20.27;60.96;101457.26;2247714;78;51958;-78
2022/10/03 09:30:21;;;;;;;;;;;;;;;20.27;60.90;101461.29;2242730;78;50461;-77
2022/10/03 09:33:25;;;;;;;;;;;;;;;20.21;60.96;101459.63;2223540;80;50534;-78
2022/10/03 09:36:45;;;;;;;;;;;;;;;20.21;60.93;101467.69;2224897;78;51517;-77
2022/10/03 09:40:05;;;;;;;;;;;;;;;20.16;61.05;101457.14;2210176;80;50182;-76
2022/10/03 09:43:14;;;;;;;;;;;;;;;20.14;61.15;101460.50;2224018;80;50915;-76
2022/10/03 09:46:27;;;;;;;;;;;;;;;20.11;61.43;101461.68;2223879;79;50529;-78
2022/10/03 09:49:36;;;;;;;;;;;;;;;20.18;61.68;101455.13;2225748;79;51532;-78
2022/10/03 09:52:46;;;;;;;;;;;;;;;20.29;61.36;101459.27;2212168;80;51839;-78
2022/10/03 09:55:52;;;;;;;;;;;;;;;20.39;61.24;101458.04;2233636;78;50951;-76
2022/10/03 09:59:12;;;;;;;;;;;;;;;20.37;61.27;101464.13;2241376;78;50827;-78
2022/10/03 10:02:32;;;;;;;;;;;;;;;20.43;61.36;101463.41;2261389;78;50339;-78
2022/10/03 10:05:52;;;;;;;;;;;;;;;20.41;61.29;101468.63;2247882;77;51037;-79
2022/10/03 10:09:12;;;;;;;;;;;;;;;20.37;61.69;101471.32;2261492;78;50750;-78
2022/10/03 10:12:31;;;;;;;;;;;;;;;20.28;62.37;101470.53;2244578;78;51462;-78
2022/10/03 10:15:44;;;;;;;;;;;;;;;20.22;63.03;101470.73;2238293;78;51682;-77
2022/10/03 10:18:49;;;;;;;;;;;;;;;20.19;63.06;101464.84;2223244;79;52600;-77
2022/10/03 10:21:55;;;;;;;;;;;;;;;20.16;63.31;101465.20;2250811;78;50724;-78
2022/10/03 10:24:56;;;;;;;;;;;;;;;;;;2250810;79;50927;-77
2022/10/03 10:28:11;;;;;;;;;;;;;;;20.21;62.76;101473.06;2239653;79;50480;-77
2022/10/03 10:31:14;;;;;;;;;;;;;;;20.28;62.49;101457.09;2252374;79;51626;-76
2022/10/03 10:34:18;;;;;;;;;;;;;;;20.29;62.48;101457.92;2251630;78;51769;-77
2022/10/03 10:37:31;;;;;;;;;;;;;;;20.35;62.37;101450.53;2252025;79;50338;-78
2022/10/03 10:40:41;;;;;;;;;;;;;;;20.30;62.59;101457.77;2251934;78;51686;-78
2022/10/03 10:44:01;;;;;;;;;;;;;;;20.32;62.62;101453.54;2235020;79;51071;-79
2022/10/03 10:47:12;;;;;;;;;;;;;;;20.32;62.64;101450.37;2251605;78;51529;-79
2022/10/03 10:50:15;;;;;;;;;;;;;;;20.28;62.90;101453.58;2252291;79;50882;-79
2022/10/03 10:53:19;;;;;;;;;;;;;;;20.22;62.91;101448.40;2252114;79;50823;-78
2022/10/03 10:56:22;;;;;;;;;;;;;;;20.19;62.96;101443.34;2235156;79;51900;-79
2022/10/03 10:59:34;;;;;;;;;;;;;;;20.18;62.91;101455.13;2252107;78;50824;-78
2022/10/03 11:02:54;;;;;;;;;;;;;;;20.16;62.91;101447.73;2252034;79;50548;-78
2022/10/03 11:06:16;;;;;;;;;;;;;;;20.16;62.88;101452.59;2251894;79;51758;-77
2022/10/03 11:09:37;;;;;;;;;;;;;;;20.15;62.57;101446.90;2189579;79;50184;-78
2022/10/03 11:12:46;;;;;;;;;;;;;;;20.18;62.62;101453.27;2208892;80;50677;-77
2022/10/03 11:16:08;;;;;;;;;;;;;;;20.12;62.98;101458.00;2207652;80;50522;-77
2022/10/03 11:19:17;;;;;;;;;;;;;;;20.11;63.02;101460.34;2217014;79;50544;-76
2022/10/03 11:22:20;;;;;;;;;;;;;;;20.12;63.05;101459.86;2187672;80;52696;-79
2022/10/03 11:25:40;;;;;;;;;;;;;;;20.12;63.03;101451.80;2215975;79;51545;-78
2022/10/03 11:28:43;;;;;;;;;;;;;;;20.12;62.97;101460.69;2216919;80;50825;-79
2022/10/03 11:31:46;;;;;;;;;;;;;;;20.13;62.98;101460.17;2215919;80;51565;-78
2022/10/03 11:35:01;;;;;;;;;;;;;;;20.14;62.81;101464.05;2188813;80;50939;-80
2022/10/03 11:38:05;;;;;;;;;;;;;;;20.12;62.67;101460.69;2217149;79;50428;-82
2022/10/03 11:41:17;;;;;;;;;;;;;;;20.16;62.41;101468.72;2216591;80;50408;-79
2022/10/03 11:44:23;;;;;;;;;;;;;;;20.14;62.31;101464.05;2216935;79;50470;-79
2022/10/03 11:47:29;;;;;;;;;;;;;;;20.16;62.21;101466.03;2188899;80;52501;-78
2022/10/03 11:50:44;;;;;;;;;;;;;;;20.20;62.06;101463.34;2238814;79;50420;-77
2022/10/03 11:53:50;;;;;;;;;;;;;;;20.21;61.97;101463.66;2252310;79;50447;-78
2022/10/03 11:57:08;;;;;;;;;;;;;;;20.21;61.95;101462.31;2252297;77;50761;-79
2022/10/03 12:00:13;;;;;;;;;;;;;;;20.18;61.96;101469.90;2236401;79;50152;-79
2022/10/03 12:03:19;;;;;;;;;;;;;;;20.16;62.11;101461.17;2251837;79;51620;-80
2022/10/03 12:10:03;;;;;;;;;;;;;;;20.14;62.03;101462.70;2253006;79;22346;-79
2022/10/03 12:13:06;;;;;;;;;;;;;;;20.06;62.48;101457.33;2252707;79;50749;-79
2022/10/03 12:16:12;;;;;;;;;;;;;;;20.05;62.55;101453.50;2252381;78;50845;-79
2022/10/03 12:19:19;;;;;;;;;;;;;;;20.06;62.81;101457.33;2241415;78;50887;-78
2022/10/03 12:22:25;;;;;;;;;;;;;;;20.18;62.11;101443.86;2238175;79;51037;-78
2022/10/03 12:25:32;;;;;;;;;;;;;;;20.26;61.78;101440.30;2210782;78;50246;-78
2022/10/03 12:28:35;;;;;;;;;;;;;;;20.28;61.68;101447.69;2238121;79;51602;-78
2022/10/03 12:31:38;;;;;;;;;;;;;;;20.30;61.57;101446.18;2237906;79;51549;-78
2022/10/03 12:34:41;;;;;;;;;;;;;;;20.32;61.49;101444.13;2237794;78;51570;-78
2022/10/03 12:37:56;;;;;;;;;;;;;;;20.31;61.43;101441.13;2211362;79;49725;-78
2022/10/03 12:41:05;;;;;;;;;;;;;;;20.27;61.60;101455.91;2159189;79;50468;-78
2022/10/03 12:44:06;;;;;;;;;;;;;;;;;;2237908;79;50781;-78
2022/10/03 12:47:28;;;;;;;;;;;;;;;20.14;61.90;101452.44;2238047;78;51481;-78
2022/10/03 12:50:37;;;;;;;;;;;;;;;20.09;62.23;101443.58;2237865;78;51543;-78
2022/10/03 12:53:44;;;;;;;;;;;;;;;20.08;62.21;101445.91;2210730;79;51202;-78
2022/10/03 12:56:56;;;;;;;;;;;;;;;20.09;62.33;101452.98;2237996;78;51729;-78
2022/10/03 13:00:14;;;;;;;;;;;;;;;20.18;61.78;101446.55;2236613;79;50492;-78
2022/10/03 13:03:18;;;;;;;;;;;;;;;20.25;61.54;101440.49;2237948;78;50749;-79
2022/10/03 13:06:38;;;;;;;;;;;;;;;20.28;61.40;101434.77;2210757;79;51644;-79
2022/10/03 13:09:42;;;;;;;;;;;;;;;20.28;61.36;101440.14;2237761;78;50381;-78
2022/10/03 13:12:45;;;;;;;;;;;;;;;20.31;61.17;101430.37;2237602;79;50402;-78
2022/10/03 13:16:07;;;;;;;;;;;;;;;20.26;61.31;101438.13;2238047;78;50502;-78
2022/10/03 13:19:10;;;;;;;;;;;;;;;20.26;61.29;101439.47;2237980;78;22303;-78
2022/10/03 13:22:13;;;;;;;;;;;;;;;20.25;61.49;101429.75;2238099;78;50337;-78
2022/10/03 13:25:25;;;;;;;;;;;;;;;20.12;61.84;101428.45;2164219;78;51397;-78
2022/10/03 13:28:30;;;;;;;;;;;;;;;20.09;61.98;101434.17;2238088;79;51548;-78
2022/10/03 13:31:33;;;;;;;;;;;;;;;20.07;62.01;101425.45;2238449;78;22286;-78
2022/10/03 13:34:36;;;;;;;;;;;;;;;20.04;62.28;101432.52;2235034;79;50549;-77
2022/10/03 13:37:39;;;;;;;;;;;;;;;20.07;61.98;101433.50;2235428;78;50815;-78
2022/10/03 13:40:42;;;;;;;;;;;;;;;20.19;61.54;101428.09;2236038;79;50871;-79
2022/10/03 13:43:48;;;;;;;;;;;;;;;20.27;61.26;101437.09;2210200;78;50178;-77
2022/10/03 13:47:08;;;;;;;;;;;;;;;20.30;61.10;101442.15;2210091;79;50440;-77
2022/10/03 13:50:27;;;;;;;;;;;;;;;20.30;61.06;101450.22;2210466;79;49659;-77
2022/10/03 13:53:35;;;;;;;;;;;;;;;20.30;61.02;101435.43;2237059;78;51552;-78
2022/10/03 13:56:41;;;;;;;;;;;;;;;20.30;60.89;101436.78;2210401;79;49567;-78
2022/10/03 13:59:47;;;;;;;;;;;;;;;20.23;61.30;101432.59;2237468;78;50462;-77
2022/10/03 14:02:49;;;;;;;;;;;;;;;20.26;61.14;101446.19;2237574;79;22434;-77
2022/10/03 14:05:58;;;;;;;;;;;;;;;20.32;60.86;101449.51;2236986;78;50686;-77
2022/10/03 14:09:01;;;;;;;;;;;;;;;20.37;60.73;101443.09;2210337;79;51055;-77
2022/10/03 14:12:04;;;;;;;;;;;;;;;20.37;60.67;101437.24;2237469;78;51390;-77
2022/10/03 14:15:08;;;;;;;;;;;;;;;20.41;60.56;101428.31;2235637;79;51465;-77
2022/10/03 14:18:14;;;;;;;;;;;;;;;20.30;61.19;101451.05;2236941;78;51658;-78
2022/10/03 14:21:34;;;;;;;;;;;;;;;20.23;61.44;101450.89;2210044;79;51055;-78
2022/10/03 14:24:41;;;;;;;;;;;;;;;20.20;61.64;101453.11;2237210;79;50700;-78
2022/10/03 14:27:53;;;;;;;;;;;;;;;20.15;61.82;101449.59;2237571;78;50327;-78
2022/10/03 14:30:59;;;;;;;;;;;;;;;20.16;61.82;101449.91;2237810;79;51449;-78
2022/10/03 14:34:01;;;;;;;;;;;;;;;20.14;61.90;101430.45;2210903;79;52596;-78
2022/10/03 14:37:05;;;;;;;;;;;;;;;20.14;62.04;101441.20;2211264;79;50174;-78
2022/10/03 14:40:26;;;;;;;;;;;;;;;20.11;62.19;101444.22;2237422;79;50833;-78
2022/10/03 14:43:34;;;;;;;;;;;;;;;20.12;62.09;101436.51;2237660;79;22820;-78
2022/10/03 14:46:37;;;;;;;;;;;;;;;20.11;62.09;101445.56;2071431;85;51179;-78
2022/10/03 14:49:40;;;;;;;;;;;;;;;20.09;62.08;101431.48;2062188;86;51666;-78
2022/10/03 14:52:51;;;;;;;;;;;;;;;20.08;62.02;101433.82;2058786;86;51551;-78
2022/10/03 14:55:55;;;;;;;;;;;;;;;20.07;61.93;101428.64;2058495;86;50487;-78
2022/10/03 14:58:56;;;;;;;;;;;;;;;20.05;61.90;101432.00;2042835;85;51478;-78
2022/10/03 15:01:59;;;;;;;;;;;;;;;20.04;61.85;101435.68;2059318;85;51693;-78
2022/10/03 15:05:03;;;;;;;;;;;;;;;20.03;61.83;101429.48;2059030;86;50371;-78
2022/10/03 15:08:06;;;;;;;;;;;;;;;20.02;61.82;101435.88;2059315;86;50817;-78
2022/10/03 15:11:09;;;;;;;;;;;;;;;19.98;61.80;101428.64;2038670;86;51060;-78
2022/10/03 15:14:10;;;;;;;;;;;;;;;19.99;61.84;101433.54;2059080;86;51525;-78
2022/10/03 15:17:16;;;;;;;;;;;;;;;19.97;61.87;101426.16;2059233;85;51591;-78
2022/10/03 15:20:19;;;;;;;;;;;;;;;20.08;61.43;101428.96;2059237;86;51481;-77
2022/10/03 15:23:41;;;;;;;;;;;;;;;20.20;61.04;101418.17;2080600;82;49377;-78
2022/10/03 15:26:42;;;;;;;;;;;;;;;20.30;60.73;101420.65;2168078;80;51670;-78
2022/10/03 15:29:44;;;;;;;;;;;;;;;20.34;60.54;101427.33;2168140;81;50849;-78
2022/10/03 15:32:47;;;;;;;;;;;;;;;20.31;60.56;101427.17;2168384;81;51649;-78
2022/10/03 15:35:51;;;;;;;;;;;;;;;20.33;60.49;101429.19;2189583;79;50190;-78
2022/10/03 15:38:53;;;;;;;;;;;;;;;20.32;60.46;101432.03;2168369;81;50762;-78
2022/10/03 15:42:05;;;;;;;;;;;;;;;20.31;60.47;101430.37;2167996;81;50899;-78
2022/10/03 15:45:11;;;;;;;;;;;;;;;20.31;60.42;101430.37;2205211;80;23109;-78
2022/10/03 15:48:15;;;;;;;;;;;;;;;20.27;60.48;101433.06;2167139;80;50836;-78
2022/10/03 15:51:18;;;;;;;;;;;;;;;20.23;60.50;101429.39;2204192;80;50778;-78
2022/10/03 15:54:21;;;;;;;;;;;;;;;20.23;60.49;101430.73;2167917;82;51584;-78
2022/10/03 15:57:27;;;;;;;;;;;;;;;20.21;60.50;101434.09;2164995;80;51725;-78
2022/10/03 16:00:30;;;;;;;;;;;;;;;20.21;60.52;101439.98;2169382;81;52717;-78
2022/10/03 16:03:48;;;;;;;;;;;;;;;20.27;60.38;101439.79;2169255;81;51976;-78
2022/10/03 16:06:58;;;;;;;;;;;;;;;20.33;60.22;101434.56;2190594;80;50830;-78
2022/10/03 16:10:19;;;;;;;;;;;;;;;20.39;60.03;101433.02;2190561;80;51605;-79
2022/10/03 16:13:37;;;;;;;;;;;;;;;20.40;59.89;101422.61;2147928;81;51824;-79
2022/10/03 16:16:40;;;;;;;;;;;;;;;20.34;60.00;101430.02;2199697;79;50518;-78
2022/10/03 16:19:43;;;;;;;;;;;;;;;20.30;60.12;101435.43;2204313;80;52532;-78
2022/10/03 16:22:48;;;;;;;;;;;;;;;20.27;60.19;101433.06;2204213;80;54573;-78
2022/10/03 16:25:51;;;;;;;;;;;;;;;20.27;60.15;101439.79;2183297;79;49869;-78
2022/10/03 16:29:09;;;;;;;;;;;;;;;20.25;60.15;101444.52;2204394;80;50113;-77